createdAt,value
2018-03-14T00:02:26.443Z,8.16
2018-03-14T00:04:54.839Z,8.16
2018-03-14T00:07:23.246Z,7.44
2018-03-14T00:09:51.648Z,8.19
2018-03-14T00:12:20.176Z,9.07
2018-03-14T00:14:48.696Z,8.63
2018-03-14T00:17:17.116Z,8.69
2018-03-14T00:19:45.628Z,9.07
2018-03-14T00:22:25.617Z,9.08
2018-03-14T00:24:54.059Z,8.67
2018-03-14T00:27:22.467Z,8.44
2018-03-14T00:29:50.889Z,8.81
2018-03-14T00:32:20.740Z,8.86
2018-03-14T00:34:49.228Z,9.24
2018-03-14T00:37:17.718Z,9.18
2018-03-14T00:39:46.148Z,7.99
2018-03-14T00:42:14.559Z,7.94
2018-03-14T00:44:42.964Z,8.16
2018-03-14T00:47:11.396Z,8.94
2018-03-14T00:49:39.793Z,9.20
2018-03-14T00:52:08.208Z,7.58
2018-03-14T00:54:36.609Z,8.42
2018-03-14T00:57:05.103Z,9.22
2018-03-14T00:59:33.541Z,8.76
2018-03-14T01:02:02.259Z,9.24
2018-03-14T01:04:30.764Z,7.96
2018-03-14T01:06:59.191Z,8.23
2018-03-14T01:09:27.600Z,8.64
2018-03-14T01:11:56.024Z,8.35
2018-03-14T01:14:24.520Z,8.33
2018-03-14T01:16:52.931Z,7.77
2018-03-14T01:19:21.312Z,8.16
2018-03-14T01:21:49.691Z,8.52
2018-03-14T01:24:18.107Z,8.77
2018-03-14T01:26:46.501Z,7.88
2018-03-14T01:29:14.892Z,8.95
2018-03-14T01:31:43.331Z,8.58
2018-03-14T01:34:11.748Z,7.44
2018-03-14T01:36:40.158Z,7.52
2018-03-14T01:39:08.578Z,7.80
2018-03-14T01:41:37.000Z,8.52
2018-03-14T01:44:05.427Z,7.39
2018-03-14T01:46:33.816Z,7.88
2018-03-14T01:49:02.202Z,8.14
2018-03-14T01:51:30.640Z,7.19
2018-03-14T01:53:59.020Z,7.69
2018-03-14T01:56:27.406Z,7.87
2018-03-14T01:58:55.931Z,7.72
2018-03-14T02:01:24.478Z,7.70
2018-03-14T02:03:52.869Z,8.81
2018-03-14T02:06:21.284Z,8.48
2018-03-14T02:08:49.669Z,7.97
2018-03-14T02:11:18.103Z,8.25
2018-03-14T02:13:46.472Z,8.52
2018-03-14T02:16:14.944Z,8.29
2018-03-14T02:18:43.304Z,8.33
2018-03-14T02:21:11.706Z,8.85
2018-03-14T02:23:40.083Z,8.43
2018-03-14T02:26:08.477Z,8.43
2018-03-14T02:28:37.035Z,7.72
2018-03-14T02:31:05.409Z,7.64
2018-03-14T02:33:33.819Z,7.94
2018-03-14T02:36:02.207Z,8.21
2018-03-14T02:38:30.616Z,8.13
2018-03-14T02:40:59.025Z,7.54
2018-03-14T02:43:27.396Z,8.24
2018-03-14T02:45:55.780Z,9.19
2018-03-14T02:48:24.135Z,8.59
2018-03-14T02:50:52.530Z,8.38
2018-03-14T02:53:20.881Z,8.75
2018-03-14T02:55:49.293Z,8.77
2018-03-14T02:58:17.663Z,9.06
2018-03-14T03:00:46.035Z,8.28
2018-03-14T03:03:14.408Z,9.19
2018-03-14T03:05:42.832Z,8.62
2018-03-14T03:08:11.627Z,8.47
2018-03-14T03:10:39.992Z,8.82
2018-03-14T03:13:08.374Z,8.72
2018-03-14T03:15:36.743Z,9.17
2018-03-14T03:18:05.103Z,8.69
2018-03-14T03:20:33.536Z,8.14
2018-03-14T03:23:01.918Z,8.03
2018-03-14T03:25:30.280Z,7.83
2018-03-14T03:27:58.635Z,8.55
2018-03-14T03:30:27.101Z,8.24
2018-03-14T03:32:55.623Z,8.80
2018-03-14T03:35:23.985Z,8.97
2018-03-14T03:37:52.374Z,8.96
2018-03-14T03:40:20.732Z,8.41
2018-03-14T03:42:49.128Z,8.28
2018-03-14T03:45:17.648Z,8.71
2018-03-14T03:47:46.036Z,8.56
2018-03-14T03:50:14.403Z,8.05
2018-03-14T03:52:42.752Z,8.85
2018-03-14T03:55:11.105Z,8.68
2018-03-14T03:57:39.491Z,8.85
2018-03-14T04:00:30.832Z,8.07
2018-03-14T04:02:59.228Z,7.22
2018-03-14T04:05:27.648Z,7.80
2018-03-14T04:07:55.986Z,7.92
2018-03-14T04:10:24.393Z,8.35
2018-03-14T04:12:54.139Z,8.12
2018-03-14T04:15:22.589Z,7.74
2018-03-14T04:17:50.985Z,7.65
2018-03-14T04:20:19.388Z,7.54
2018-03-14T04:22:47.759Z,7.86
2018-03-14T04:25:16.177Z,7.65
2018-03-14T04:27:44.628Z,7.04
2018-03-14T04:30:13.064Z,8.30
2018-03-14T04:32:41.532Z,8.00
2018-03-14T04:35:09.905Z,7.18
2018-03-14T04:37:38.303Z,6.92
2018-03-14T04:40:06.758Z,6.53
2018-03-14T04:42:35.166Z,8.06
2018-03-14T04:45:03.563Z,8.47
2018-03-14T04:47:32.174Z,8.51
2018-03-14T04:50:00.577Z,8.43
2018-03-14T04:52:29.034Z,8.07
2018-03-14T04:54:57.404Z,8.21
2018-03-14T04:57:25.823Z,8.27
2018-03-14T04:59:54.228Z,7.89
2018-03-14T05:02:22.628Z,8.34
2018-03-14T05:04:51.496Z,8.61
2018-03-14T05:07:19.895Z,9.03
2018-03-14T05:09:48.300Z,8.41
2018-03-14T05:12:16.694Z,8.26
2018-03-14T05:14:45.093Z,7.81
2018-03-14T05:17:13.935Z,7.39
2018-03-14T05:19:42.405Z,7.60
2018-03-14T05:22:10.815Z,8.15
2018-03-14T05:24:39.288Z,7.90
2018-03-14T05:27:07.671Z,8.30
2018-03-14T05:29:36.152Z,7.92
2018-03-14T05:32:04.561Z,7.96
2018-03-14T05:34:32.973Z,8.36
2018-03-14T05:37:01.405Z,8.49
2018-03-14T05:39:29.808Z,7.23
2018-03-14T05:41:58.281Z,8.50
2018-03-14T05:44:27.046Z,7.86
2018-03-14T05:46:55.445Z,7.59
2018-03-14T05:49:23.817Z,7.77
2018-03-14T05:51:52.229Z,7.55
2018-03-14T05:54:20.613Z,7.67
2018-03-14T05:56:49.085Z,7.22
2018-03-14T05:59:17.521Z,8.81
2018-03-14T06:01:46.019Z,8.99
2018-03-14T06:04:14.427Z,8.93
2018-03-14T06:06:42.890Z,8.85
2018-03-14T06:09:11.327Z,8.41
2018-03-14T06:11:39.756Z,8.03
2018-03-14T06:14:08.267Z,7.73
2018-03-14T06:16:36.662Z,8.35
2018-03-14T06:19:05.064Z,8.45
2018-03-14T06:21:33.484Z,8.30
2018-03-14T06:24:01.912Z,8.91
2018-03-14T06:26:30.303Z,7.99
2018-03-14T06:28:58.884Z,8.92
2018-03-14T06:31:27.294Z,8.39
2018-03-14T06:33:55.796Z,8.30
2018-03-14T06:36:24.187Z,8.20
2018-03-14T06:38:52.594Z,9.16
2018-03-14T06:41:21.067Z,8.98
2018-03-14T06:43:49.477Z,9.50
2018-03-14T06:46:17.970Z,9.46
2018-03-14T06:48:46.375Z,9.22
2018-03-14T06:51:14.771Z,9.17
2018-03-14T06:53:43.172Z,9.10
2018-03-14T06:56:11.567Z,9.37
2018-03-14T06:58:51.829Z,9.45
2018-03-14T07:01:31.964Z,9.58
2018-03-14T07:04:12.338Z,8.66
2018-03-14T07:06:40.745Z,7.99
2018-03-14T07:09:09.175Z,8.76
2018-03-14T07:11:37.568Z,9.03
2018-03-14T07:14:06.019Z,8.86
2018-03-14T07:16:34.472Z,8.92
2018-03-14T07:19:02.884Z,9.45
2018-03-14T07:21:31.383Z,8.87
2018-03-14T07:23:59.795Z,9.18
2018-03-14T07:26:28.195Z,9.12
2018-03-14T07:28:56.616Z,9.99
2018-03-14T07:31:25.025Z,9.61
2018-03-14T07:33:53.593Z,9.56
2018-03-14T07:36:21.998Z,9.72
2018-03-14T07:38:50.388Z,9.40
2018-03-14T07:41:18.889Z,9.83
2018-03-14T07:43:47.304Z,8.64
2018-03-14T07:46:15.809Z,9.56
2018-03-14T07:48:44.206Z,9.52
2018-03-14T07:51:12.622Z,9.67
2018-03-14T07:53:41.042Z,9.61
2018-03-14T07:56:09.436Z,9.65
2018-03-14T07:58:37.852Z,9.83
2018-03-14T08:01:06.294Z,9.49
2018-03-14T08:03:34.716Z,9.73
2018-03-14T08:06:03.112Z,9.01
2018-03-14T08:08:31.520Z,9.75
2018-03-14T08:10:59.927Z,9.69
2018-03-14T08:13:28.414Z,9.33
2018-03-14T08:15:56.912Z,9.22
2018-03-14T08:21:12.487Z,9.53
2018-03-14T08:23:40.897Z,9.86
2018-03-14T08:26:09.300Z,9.41
2018-03-14T08:28:37.780Z,9.65
2018-03-14T08:31:06.197Z,9.98
2018-03-14T08:33:34.671Z,10.18
2018-03-14T08:36:03.055Z,9.40
2018-03-14T08:38:31.472Z,9.16
2018-03-14T08:40:59.894Z,9.90
2018-03-14T08:43:28.301Z,9.65
2018-03-14T08:45:56.767Z,10.26
2018-03-14T08:48:25.172Z,10.13
2018-03-14T08:50:53.580Z,10.46
2018-03-14T08:53:21.993Z,10.53
2018-03-14T08:55:50.416Z,10.32
2018-03-14T08:58:18.868Z,10.11
2018-03-14T09:00:47.272Z,10.25
2018-03-14T09:03:15.676Z,10.28
2018-03-14T09:05:44.077Z,9.93
2018-03-14T09:08:12.491Z,10.17
2018-03-14T09:10:41.040Z,10.89
2018-03-14T09:13:09.432Z,9.82
2018-03-14T09:15:37.921Z,10.41
2018-03-14T09:18:06.337Z,9.85
2018-03-14T09:20:34.750Z,10.03
2018-03-14T09:23:03.403Z,9.03
2018-03-14T09:25:31.805Z,10.06
2018-03-14T09:28:00.196Z,9.89
2018-03-14T09:30:28.594Z,10.77
2018-03-14T09:32:56.983Z,10.01
2018-03-14T09:35:25.548Z,10.54
2018-03-14T09:37:53.944Z,9.61
2018-03-14T09:40:22.350Z,10.44
2018-03-14T09:42:50.740Z,10.20
2018-03-14T09:45:19.157Z,10.29
2018-03-14T09:47:47.614Z,10.32
2018-03-14T09:50:16.945Z,11.21
2018-03-14T09:52:45.426Z,10.47
2018-03-14T09:55:14.215Z,10.29
2018-03-14T09:57:43.060Z,10.58
2018-03-14T10:00:12.059Z,10.52
2018-03-14T10:02:40.851Z,10.67
2018-03-14T10:05:09.839Z,10.82
2018-03-14T10:07:38.886Z,10.57
2018-03-14T10:10:07.696Z,10.85
2018-03-14T10:12:36.453Z,10.81
2018-03-14T10:15:04.840Z,10.49
2018-03-14T10:17:33.264Z,10.44
2018-03-14T10:20:01.679Z,10.54
2018-03-14T10:22:30.125Z,10.64
2018-03-14T10:24:58.592Z,10.80
2018-03-14T10:27:27.007Z,10.38
2018-03-14T10:29:55.412Z,11.05
2018-03-14T10:32:23.815Z,10.91
2018-03-14T10:34:52.251Z,11.09
2018-03-14T10:37:20.705Z,11.10
2018-03-14T10:39:49.103Z,12.01
2018-03-14T10:42:17.510Z,11.68
2018-03-14T10:44:45.910Z,11.70
2018-03-14T10:47:14.323Z,11.40
2018-03-14T10:49:42.796Z,11.33
2018-03-14T10:52:11.214Z,11.16
2018-03-14T10:54:39.599Z,11.36
2018-03-14T10:57:08.018Z,11.04
2018-03-14T10:59:36.435Z,10.63
2018-03-14T11:02:10.506Z,11.05
2018-03-14T11:04:38.907Z,10.59
2018-03-14T11:07:07.327Z,10.60
2018-03-14T11:09:35.727Z,10.53
2018-03-14T11:12:05.248Z,11.16
2018-03-14T11:14:33.656Z,11.21
2018-03-14T11:17:02.170Z,11.78
2018-03-14T11:19:30.563Z,11.88
2018-03-14T11:21:59.023Z,12.85
2018-03-14T11:24:27.468Z,12.76
2018-03-14T11:26:55.976Z,13.09
2018-03-14T11:29:24.408Z,13.24
2018-03-14T11:31:52.802Z,12.52
2018-03-14T11:34:21.188Z,12.04
2018-03-14T11:36:49.718Z,12.32
2018-03-14T11:39:18.139Z,12.38
2018-03-14T11:41:46.544Z,12.50
2018-03-14T11:44:14.951Z,13.14
2018-03-14T11:46:43.425Z,12.66
2018-03-14T11:49:11.956Z,12.98
2018-03-14T11:51:40.283Z,12.41
2018-03-14T11:54:08.777Z,13.22
2018-03-14T11:56:37.189Z,13.64
2018-03-14T11:59:05.599Z,14.45
2018-03-14T12:01:34.058Z,14.02
2018-03-14T12:04:02.475Z,13.49
2018-03-14T12:06:30.857Z,13.67
2018-03-14T12:08:59.257Z,13.11
2018-03-14T12:11:27.650Z,12.96
2018-03-14T12:13:56.137Z,13.66
2018-03-14T12:16:24.749Z,14.30
2018-03-14T12:18:53.217Z,14.54
2018-03-14T12:21:21.657Z,14.92
2018-03-14T12:23:50.651Z,14.25
2018-03-14T12:26:19.263Z,13.76
2018-03-14T12:28:47.622Z,13.62
2018-03-14T12:31:16.076Z,13.59
2018-03-14T12:33:44.472Z,13.68
2018-03-14T12:36:12.875Z,13.29
2018-03-14T12:38:41.370Z,13.40
2018-03-14T12:41:09.755Z,14.12
2018-03-14T12:43:38.177Z,13.15
2018-03-14T12:46:06.581Z,13.04
2018-03-14T12:48:34.986Z,13.57
2018-03-14T12:51:03.591Z,13.37
2018-03-14T12:53:31.994Z,13.73
2018-03-14T12:56:00.396Z,13.86
2018-03-14T12:58:28.804Z,14.23
2018-03-14T13:00:57.207Z,14.31
2018-03-14T13:03:25.664Z,13.76
2018-03-14T13:05:54.085Z,13.91
2018-03-14T13:08:22.475Z,12.95
2018-03-14T13:10:50.863Z,13.78
2018-03-14T13:13:19.270Z,13.50
2018-03-14T13:15:47.825Z,13.41
2018-03-14T13:18:16.215Z,13.98
2018-03-14T13:20:44.680Z,13.87
2018-03-14T13:23:13.126Z,13.72
2018-03-14T13:25:41.530Z,14.32
2018-03-14T13:28:10.041Z,14.29
2018-03-14T13:30:41.487Z,13.49
2018-03-14T13:33:10.899Z,13.80
2018-03-14T13:35:39.287Z,13.03
2018-03-14T13:38:07.712Z,12.64
2018-03-14T13:40:36.103Z,13.01
2018-03-14T13:43:04.507Z,13.60
2018-03-14T13:45:33.377Z,12.15
2018-03-14T13:48:01.810Z,13.17
2018-03-14T13:50:30.231Z,12.88
2018-03-14T13:52:58.749Z,13.25
2018-03-14T13:55:27.157Z,13.32
2018-03-14T13:57:55.608Z,13.32
2018-03-14T14:00:24.012Z,12.92
2018-03-14T14:02:52.480Z,12.03
2018-03-14T14:05:21.047Z,13.34
2018-03-14T14:07:49.434Z,13.53
2018-03-14T14:10:17.948Z,13.22
2018-03-14T14:12:46.353Z,12.73
2018-03-14T14:15:14.760Z,12.73
2018-03-14T14:17:43.199Z,12.51
2018-03-14T14:20:11.577Z,12.74
2018-03-14T14:22:40.140Z,12.63
2018-03-14T14:25:08.556Z,12.83
2018-03-14T14:27:37.027Z,12.87
2018-03-14T14:30:05.403Z,12.75
2018-03-14T14:32:33.909Z,12.90
2018-03-14T14:35:02.389Z,12.84
2018-03-14T14:37:30.816Z,13.23
2018-03-14T14:39:59.233Z,12.81
2018-03-14T14:42:27.704Z,12.34
2018-03-14T14:44:56.108Z,13.36
2018-03-14T14:47:24.602Z,13.20
2018-03-14T14:49:53.044Z,12.94
2018-03-14T14:52:21.502Z,13.02
2018-03-14T14:54:49.928Z,13.86
2018-03-14T14:57:18.348Z,14.22
2018-03-14T14:59:46.826Z,13.44
2018-03-14T15:02:15.242Z,13.24
2018-03-14T15:04:43.688Z,14.40
2018-03-14T15:07:12.111Z,13.76
2018-03-14T15:09:40.585Z,13.28
2018-03-14T15:12:09.094Z,13.11
2018-03-14T15:14:37.490Z,13.14
2018-03-14T15:17:06.024Z,13.11
2018-03-14T15:19:34.469Z,13.15
2018-03-14T15:22:02.864Z,12.91
2018-03-14T15:24:31.389Z,13.30
2018-03-14T15:26:59.835Z,13.66
2018-03-14T15:29:28.218Z,13.51
2018-03-14T15:31:56.746Z,13.62
2018-03-14T15:34:25.196Z,13.12
2018-03-14T15:36:53.668Z,12.81
2018-03-14T15:39:22.058Z,13.19
2018-03-14T15:41:50.455Z,12.60
2018-03-14T15:44:18.868Z,13.01
2018-03-14T15:46:47.280Z,13.28
2018-03-14T15:49:15.748Z,13.04
2018-03-14T15:51:44.159Z,12.98
2018-03-14T15:54:12.521Z,13.08
2018-03-14T15:56:40.995Z,13.23
2018-03-14T15:59:09.476Z,13.27
2018-03-14T16:01:38.064Z,12.86
2018-03-14T16:04:06.512Z,12.89
2018-03-14T16:06:34.929Z,12.66
2018-03-14T16:09:03.335Z,12.28
2018-03-14T16:11:31.741Z,12.90
2018-03-14T16:14:00.344Z,12.31
2018-03-14T16:16:28.756Z,12.34
2018-03-14T16:18:57.230Z,12.91
2018-03-14T16:21:25.636Z,12.74
2018-03-14T16:23:54.069Z,12.35
2018-03-14T16:26:22.489Z,12.27
2018-03-14T16:28:50.891Z,11.17
2018-03-14T16:31:19.459Z,11.52
2018-03-14T16:33:49.033Z,12.24
2018-03-14T16:36:17.493Z,12.06
2018-03-14T16:38:45.897Z,11.72
2018-03-14T16:41:14.314Z,11.84
2018-03-14T16:43:42.880Z,11.86
2018-03-14T16:46:11.271Z,11.86
2018-03-14T16:48:39.727Z,11.66
2018-03-14T16:51:08.159Z,12.05
2018-03-14T16:53:36.556Z,11.13
2018-03-14T16:56:04.965Z,11.90
2018-03-14T16:58:33.378Z,11.97
2018-03-14T17:01:01.871Z,12.35
2018-03-14T17:03:30.306Z,11.79
2018-03-14T17:05:58.703Z,11.44
2018-03-14T17:08:27.099Z,11.02
2018-03-14T17:10:55.598Z,11.24
2018-03-14T17:13:24.055Z,11.16
2018-03-14T17:15:52.473Z,11.11
2018-03-14T17:18:20.996Z,10.83
2018-03-14T17:20:49.548Z,10.95
2018-03-14T17:23:18.030Z,10.78
2018-03-14T17:25:47.888Z,10.65
2018-03-14T17:28:16.346Z,10.91
2018-03-14T17:30:44.864Z,10.61
2018-03-14T17:33:13.260Z,10.44
2018-03-14T17:35:41.678Z,10.49
2018-03-14T17:38:10.080Z,10.43
2018-03-14T17:40:50.583Z,10.34
2018-03-14T17:43:19.009Z,10.14
2018-03-14T17:45:47.546Z,10.28
2018-03-14T17:48:16.000Z,10.14
2018-03-14T17:50:44.438Z,10.00
2018-03-14T17:53:12.880Z,9.91
2018-03-14T17:55:41.313Z,9.62
2018-03-14T17:58:09.820Z,9.68
2018-03-14T18:00:38.395Z,9.52
2018-03-14T18:03:06.828Z,9.24
2018-03-14T18:05:35.256Z,9.58
2018-03-14T18:08:03.735Z,9.59
2018-03-14T18:10:32.181Z,9.54
2018-03-14T18:13:00.580Z,9.50
2018-03-14T18:15:29.047Z,9.35
2018-03-14T18:17:57.452Z,8.91
2018-03-14T18:20:25.854Z,9.30
2018-03-14T18:22:54.340Z,9.09
2018-03-14T18:25:22.809Z,8.91
2018-03-14T18:27:51.432Z,8.93
2018-03-14T18:30:19.891Z,8.85
2018-03-14T18:32:48.354Z,9.22
2018-03-14T18:35:16.780Z,9.07
2018-03-14T18:37:45.189Z,9.24
2018-03-14T18:40:13.664Z,8.84
2018-03-14T18:42:42.089Z,8.64
2018-03-14T18:45:10.492Z,8.64
2018-03-14T18:47:38.988Z,8.34
2018-03-14T18:50:07.424Z,8.80
2018-03-14T18:52:35.954Z,8.94
2018-03-14T18:55:04.343Z,8.90
2018-03-14T18:57:32.935Z,8.38
2018-03-14T19:00:01.360Z,8.35
2018-03-14T19:02:29.808Z,8.75
2018-03-14T19:04:58.242Z,8.69
2018-03-14T19:07:26.665Z,8.83
2018-03-14T19:09:55.073Z,8.59
2018-03-14T19:12:23.569Z,8.55
2018-03-14T19:14:51.970Z,8.59
2018-03-14T19:17:20.514Z,8.40
2018-03-14T19:19:48.905Z,8.47
2018-03-14T19:22:17.371Z,8.36
2018-03-14T19:24:45.751Z,8.13
2018-03-14T19:27:14.245Z,8.03
2018-03-14T19:29:42.708Z,7.82
2018-03-14T19:32:11.092Z,8.13
2018-03-14T19:34:39.589Z,8.06
2018-03-14T19:37:08.010Z,8.06
2018-03-14T19:39:36.399Z,7.85
2018-03-14T19:42:04.976Z,7.99
2018-03-14T19:44:33.473Z,7.57
2018-03-14T19:47:01.859Z,7.86
2018-03-14T19:49:30.220Z,7.41
2018-03-14T19:51:58.586Z,7.22
2018-03-14T19:54:27.010Z,7.33
2018-03-14T19:56:55.368Z,7.67
2018-03-14T19:59:23.838Z,7.90
2018-03-14T20:01:52.263Z,7.35
2018-03-14T20:04:20.665Z,7.59
2018-03-14T20:06:49.133Z,7.19
2018-03-14T20:09:17.637Z,7.32
2018-03-14T20:11:46.124Z,7.50
2018-03-14T20:14:14.544Z,7.52
2018-03-14T20:16:42.919Z,7.48
2018-03-14T20:19:11.569Z,7.32
2018-03-14T20:21:40.057Z,7.62
2018-03-14T20:24:08.487Z,7.79
2018-03-14T20:26:36.890Z,7.41
2018-03-14T20:29:05.562Z,7.58
2018-03-14T20:31:34.151Z,7.51
2018-03-14T20:34:02.581Z,7.61
2018-03-14T20:36:31.058Z,7.35
2018-03-14T20:38:59.513Z,7.63
2018-03-14T20:41:27.921Z,7.33
2018-03-14T20:43:56.393Z,7.41
2018-03-14T20:46:24.850Z,7.35
2018-03-14T20:48:53.258Z,7.28
2018-03-14T20:51:21.660Z,7.24
2018-03-14T20:53:50.155Z,7.50
2018-03-14T20:56:18.611Z,7.58
2018-03-14T20:58:47.058Z,7.38
2018-03-14T21:01:15.496Z,7.49
2018-03-14T21:03:43.924Z,7.24
2018-03-14T21:06:12.325Z,7.46
2018-03-14T21:08:41.664Z,7.56
2018-03-14T21:11:10.051Z,7.80
2018-03-14T21:13:38.441Z,7.83
2018-03-14T21:16:06.835Z,7.78
2018-03-14T21:18:35.286Z,7.93
2018-03-14T21:21:03.696Z,7.84
2018-03-14T21:23:32.306Z,7.65
2018-03-14T21:26:00.747Z,7.29
2018-03-14T21:28:29.186Z,7.54
2018-03-14T21:30:57.581Z,7.67
2018-03-14T21:33:26.000Z,7.41
2018-03-14T21:35:54.480Z,7.78
2018-03-14T21:38:22.991Z,7.92
2018-03-14T21:40:51.389Z,7.88
2018-03-14T21:43:19.752Z,7.09
2018-03-14T21:45:48.145Z,7.59
2018-03-14T21:48:16.546Z,6.71
2018-03-14T21:50:44.921Z,6.95
2018-03-14T21:53:13.324Z,6.92
2018-03-14T21:55:41.800Z,7.59
2018-03-14T21:58:10.289Z,7.30
2018-03-14T22:00:38.690Z,6.79
2018-03-14T22:03:07.092Z,6.52
2018-03-14T22:08:10.143Z,6.68
2018-03-14T22:10:38.541Z,6.61
2018-03-14T22:13:06.974Z,7.09
2018-03-14T22:15:35.375Z,6.47
2018-03-14T22:18:03.781Z,6.74
2018-03-14T22:20:32.232Z,7.09
2018-03-14T22:23:00.714Z,6.76
2018-03-14T22:25:29.099Z,7.29
2018-03-14T22:27:57.596Z,7.27
2018-03-14T22:30:26.010Z,8.00
2018-03-14T22:32:54.467Z,7.72
2018-03-14T22:35:22.842Z,7.36
2018-03-14T22:37:51.223Z,6.76
2018-03-14T22:40:19.679Z,7.12
2018-03-14T22:42:48.095Z,7.03
2018-03-14T22:45:16.657Z,7.39
2018-03-14T22:47:45.122Z,7.75
2018-03-14T22:50:13.571Z,7.05
2018-03-14T22:52:42.006Z,7.19
2018-03-14T22:55:10.392Z,7.44
2018-03-14T22:57:38.804Z,7.68
2018-03-14T23:00:07.159Z,6.85
2018-03-14T23:02:35.643Z,7.20
2018-03-14T23:05:04.044Z,7.17
2018-03-14T23:07:32.455Z,6.15
2018-03-14T23:10:00.931Z,6.85
2018-03-14T23:12:29.311Z,7.73
2018-03-14T23:14:57.835Z,6.96
2018-03-14T23:17:26.211Z,6.48
2018-03-14T23:19:54.724Z,7.46
2018-03-14T23:22:23.131Z,6.48
2018-03-14T23:24:51.528Z,7.72
2018-03-14T23:27:19.913Z,6.73
2018-03-14T23:29:48.290Z,7.66
2018-03-14T23:32:16.767Z,6.66
2018-03-14T23:34:45.140Z,6.36
2018-03-14T23:37:13.581Z,6.37
2018-03-14T23:39:41.924Z,7.07
2018-03-14T23:42:10.323Z,5.95
2018-03-14T23:44:38.768Z,6.56
2018-03-14T23:47:07.165Z,6.81
2018-03-14T23:49:35.552Z,5.87
2018-03-14T23:52:03.962Z,6.35
2018-03-14T23:54:32.323Z,7.01
2018-03-14T23:57:00.765Z,7.99
2018-03-14T23:59:29.165Z,5.99
